Time;durP1;ratioP1;P1;durP2;ratioP2;P2;SDS_P1;SDS_P2;PMS_P1;PMS_P2;Temp;Humidity;BMP_temperature;BMP_pressure;BME280_temperature;BME280_humidity;BME280_pressure;Samples;Min_cycle;Max_cycle;Signal;HPM_P1;HPM_P2
2022/09/02 00:01:34;;;;;;;4.22;0.90;;;20.90;41.60;;;;;;5076975;28;20043;-66
2022/09/02 00:04:07;;;;;;;3.90;1.08;;;20.90;41.60;;;;;;5071981;28;20020;-66
2022/09/02 00:06:33;;;;;;;2.78;0.90;;;20.80;41.60;;;;;;5090923;28;20116;-67
2022/09/02 00:09:00;;;;;;;1.40;0.82;;;20.80;41.70;;;;;;5079639;28;20067;-66
2022/09/02 00:11:29;;;;;;;1.58;0.82;;;20.80;41.70;;;;;;5084591;28;20020;-66
2022/09/02 00:13:56;;;;;;;2.00;0.88;;;20.80;41.80;;;;;;5072209;28;20376;-66
2022/09/02 00:16:23;;;;;;;1.67;0.90;;;20.80;41.80;;;;;;5066275;28;20032;-66
2022/09/02 00:18:50;;;;;;;2.90;0.90;;;20.80;41.90;;;;;;5094480;28;20047;-66
2022/09/02 00:21:17;;;;;;;4.65;1.30;;;20.70;41.90;;;;;;5094475;28;20020;-66
2022/09/02 00:23:43;;;;;;;1.77;0.80;;;20.80;41.90;;;;;;5094178;28;20044;-66
2022/09/02 00:26:12;;;;;;;1.25;0.77;;;20.70;41.90;;;;;;5089668;28;20040;-66
2022/09/02 00:28:39;;;;;;;2.25;0.98;;;20.70;41.90;;;;;;5086514;28;20020;-66
2022/09/02 00:31:04;;;;;;;1.75;0.80;;;20.70;42.00;;;;;;5091282;28;20030;-66
2022/09/02 00:33:31;;;;;;;1.42;0.90;;;20.60;42.00;;;;;;5093596;28;20027;-66
2022/09/02 00:36:01;;;;;;;3.30;0.85;;;20.60;42.10;;;;;;5047260;28;20407;-66
2022/09/02 00:38:28;;;;;;;2.72;1.23;;;20.60;42.20;;;;;;5092996;28;20047;-66
2022/09/02 00:40:54;;;;;;;2.65;0.95;;;20.50;42.20;;;;;;5069019;28;20039;-66
2022/09/02 00:43:44;;;;;;;4.05;1.25;;;20.50;42.20;;;;;;5067747;28;20032;-66
2022/09/02 00:46:11;;;;;;;2.28;0.98;;;20.50;42.20;;;;;;5089751;28;20514;-66
2022/09/02 00:48:43;;;;;;;2.03;1.00;;;20.50;42.30;;;;;;5075656;28;20461;-66
2022/09/02 00:51:10;;;;;;;4.05;1.10;;;20.50;42.30;;;;;;5075758;28;20060;-66
2022/09/02 00:53:39;;;;;;;2.65;1.15;;;20.50;42.40;;;;;;5072525;28;20033;-66
2022/09/02 00:56:11;;;;;;;2.28;0.85;;;20.50;42.40;;;;;;5068678;28;20073;-66
2022/09/02 00:58:38;;;;;;;5.05;0.98;;;20.40;42.40;;;;;;5055159;28;20477;-66
2022/09/02 01:01:04;;;;;;;1.67;0.90;;;20.40;42.40;;;;;;5059899;28;20024;-66
2022/09/02 01:03:32;;;;;;;2.40;0.88;;;20.40;42.50;;;;;;5073674;28;20128;-66
2022/09/02 01:05:59;;;;;;;2.63;1.17;;;20.30;42.50;;;;;;5052419;28;20032;-66
2022/09/02 01:08:28;;;;;;;1.63;0.90;;;20.30;42.60;;;;;;5075531;28;20016;-66
2022/09/02 01:10:56;;;;;;;2.30;1.20;;;20.30;42.60;;;;;;5091876;28;20032;-66
2022/09/02 01:13:24;;;;;;;1.48;0.75;;;20.30;42.70;;;;;;5090525;28;20048;-66
2022/09/02 01:15:54;;;;;;;1.88;0.95;;;20.30;42.70;;;;;;5086414;28;20039;-66
2022/09/02 01:18:28;;;;;;;4.53;1.20;;;20.20;42.70;;;;;;5076236;28;20035;-66
2022/09/02 01:20:55;;;;;;;2.47;0.90;;;20.20;42.80;;;;;;5091813;28;20032;-66
2022/09/02 01:23:20;;;;;;;1.80;0.90;;;20.20;42.80;;;;;;5062538;28;20020;-67
2022/09/02 01:25:47;;;;;;;2.83;0.90;;;20.20;42.80;;;;;;5065942;28;20082;-66
2022/09/02 01:28:16;;;;;;;1.90;0.90;;;20.20;42.90;;;;;;5092942;28;20271;-66
2022/09/02 01:30:46;;;;;;;1.83;0.75;;;20.20;42.90;;;;;;5095275;28;20452;-66
2022/09/02 01:33:12;;;;;;;2.75;0.88;;;20.10;43.00;;;;;;5079866;28;20034;-66
2022/09/02 01:35:39;;;;;;;1.83;0.90;;;20.10;43.00;;;;;;5056368;28;20107;-66
2022/09/02 01:38:05;;;;;;;3.75;1.10;;;20.10;43.00;;;;;;5074640;28;20034;-66
2022/09/02 01:40:32;;;;;;;2.20;0.95;;;20.10;43.00;;;;;;5079614;28;20340;-66
2022/09/02 01:43:08;;;;;;;4.55;1.08;;;20.10;43.00;;;;;;5096034;28;20032;-66
2022/09/02 01:45:35;;;;;;;3.05;1.08;;;20.10;43.10;;;;;;5075571;28;20027;-66
2022/09/02 01:48:02;;;;;;;2.22;0.88;;;20.00;43.10;;;;;;5075138;28;20028;-66
2022/09/02 01:50:30;;;;;;;3.28;1.02;;;20.00;43.10;;;;;;5073417;28;20119;-66
2022/09/02 01:53:00;;;;;;;2.10;0.90;;;20.00;43.10;;;;;;5079443;28;20048;-66
2022/09/02 01:55:26;;;;;;;3.08;0.95;;;20.10;43.10;;;;;;5075418;28;20421;-66
2022/09/02 01:57:52;;;;;;;1.65;0.70;;;20.00;43.10;;;;;;5062069;28;20035;-66
2022/09/02 02:00:19;;;;;;;2.20;0.75;;;20.00;43.20;;;;;;5096801;28;20020;-67
2022/09/02 02:02:44;;;;;;;1.17;0.70;;;20.00;43.20;;;;;;5068630;28;20084;-66
2022/09/02 02:05:12;;;;;;;2.47;0.88;;;20.00;43.20;;;;;;5077332;28;20029;-66
2022/09/02 02:07:40;;;;;;;1.77;0.90;;;20.00;43.30;;;;;;5079314;28;20020;-66
2022/09/02 02:10:09;;;;;;;2.00;0.90;;;20.00;43.30;;;;;;5059202;28;20455;-66
2022/09/02 02:12:37;;;;;;;3.72;1.10;;;20.00;43.30;;;;;;5094816;28;20047;-66
2022/09/02 02:15:10;;;;;;;2.63;1.00;;;20.00;43.30;;;;;;5064269;28;20044;-66
2022/09/02 02:17:36;;;;;;;1.83;0.77;;;20.00;43.30;;;;;;5079193;28;20055;-66
2022/09/02 02:20:06;;;;;;;2.45;1.00;;;19.90;43.30;;;;;;5062378;28;20036;-66
2022/09/02 02:22:32;;;;;;;3.20;1.05;;;19.90;43.30;;;;;;5078049;28;20350;-66
2022/09/02 02:24:58;;;;;;;4.18;1.10;;;19.90;43.30;;;;;;5076518;28;20388;-66
2022/09/02 02:27:23;;;;;;;2.47;0.93;;;19.90;43.30;;;;;;5055438;28;20032;-66
2022/09/02 02:29:49;;;;;;;1.50;0.93;;;19.90;43.30;;;;;;5069382;28;20111;-66
2022/09/02 02:32:17;;;;;;;3.00;0.93;;;19.90;43.30;;;;;;5075068;28;20032;-66
2022/09/02 02:34:44;;;;;;;2.60;1.10;;;19.90;43.30;;;;;;5077892;28;20452;-66
2022/09/02 02:37:12;;;;;;;3.10;0.95;;;19.90;43.30;;;;;;5067191;28;20029;-66
2022/09/02 02:39:41;;;;;;;2.75;0.90;;;19.90;43.40;;;;;;5075443;28;20032;-66
2022/09/02 02:42:08;;;;;;;2.67;1.00;;;19.90;43.40;;;;;;5078398;28;20070;-66
2022/09/02 02:44:34;;;;;;;1.55;0.80;;;19.80;43.40;;;;;;5076530;28;20111;-66
2022/09/02 02:47:01;;;;;;;4.22;1.10;;;19.80;43.40;;;;;;5086423;28;20438;-66
2022/09/02 02:49:27;;;;;;;3.53;1.00;;;19.80;43.40;;;;;;5072960;28;20030;-66
2022/09/02 02:51:53;;;;;;;2.78;0.95;;;19.80;43.50;;;;;;5096341;28;20110;-66
2022/09/02 02:54:20;;;;;;;3.63;1.10;;;19.80;43.50;;;;;;5078300;28;20063;-66
2022/09/02 02:56:47;;;;;;;3.95;1.23;;;19.80;43.50;;;;;;5068777;28;20039;-66
2022/09/02 02:59:13;;;;;;;1.15;0.77;;;19.80;43.60;;;;;;5078086;28;20107;-66
2022/09/02 03:01:39;;;;;;;3.20;1.30;;;19.80;43.60;;;;;;5069539;28;20440;-66
2022/09/02 03:04:05;;;;;;;1.83;0.88;;;19.80;43.60;;;;;;5077524;28;20024;-66
2022/09/02 03:06:31;;;;;;;2.90;0.88;;;19.80;43.70;;;;;;5064542;28;20050;-66
2022/09/02 03:08:59;;;;;;;2.40;0.77;;;19.70;43.60;;;;;;5074174;28;20483;-66
2022/09/02 03:11:27;;;;;;;1.73;0.77;;;19.70;43.70;;;;;;5072042;28;20024;-66
2022/09/02 03:13:53;;;;;;;2.25;0.70;;;19.70;43.80;;;;;;5051958;28;20135;-66
2022/09/02 03:16:19;;;;;;;2.33;1.02;;;19.70;43.90;;;;;;5069477;28;20170;-66
2022/09/02 03:18:46;;;;;;;4.18;0.90;;;19.70;43.90;;;;;;5075669;28;20385;-66
2022/09/02 03:21:14;;;;;;;2.60;0.80;;;19.70;43.90;;;;;;5064955;28;20034;-66
2022/09/02 03:23:42;;;;;;;3.20;1.02;;;19.70;44.00;;;;;;5061190;28;20132;-66
2022/09/02 03:26:11;;;;;;;2.10;0.98;;;19.70;44.00;;;;;;5057960;28;20028;-66
2022/09/02 03:28:38;;;;;;;3.33;1.17;;;19.60;43.90;;;;;;5064431;28;20079;-66
2022/09/02 03:31:05;;;;;;;2.72;1.15;;;19.70;44.00;;;;;;5065747;28;20138;-66
2022/09/02 03:33:31;;;;;;;2.47;1.10;;;19.60;44.00;;;;;;5077129;28;20547;-66
2022/09/02 03:35:57;;;;;;;3.47;0.98;;;19.60;44.00;;;;;;5072937;28;20118;-66
2022/09/02 03:38:24;;;;;;;2.75;0.93;;;19.60;44.00;;;;;;5073985;28;20031;-66
2022/09/02 03:40:50;;;;;;;3.95;0.90;;;19.60;44.10;;;;;;5069087;28;20038;-66
2022/09/02 03:43:17;;;;;;;3.15;0.95;;;19.60;44.20;;;;;;5074361;28;20024;-66
2022/09/02 03:45:43;;;;;;;5.05;1.17;;;19.60;44.20;;;;;;5086485;28;20441;-66
2022/09/02 03:48:12;;;;;;;2.13;0.80;;;19.60;44.20;;;;;;5059715;28;20449;-66
2022/09/02 03:50:42;;;;;;;4.30;1.00;;;19.50;44.20;;;;;;5068762;28;20086;-66
2022/09/02 03:53:12;;;;;;;3.35;1.10;;;19.50;44.30;;;;;;5066413;28;20028;-66
2022/09/02 03:55:39;;;;;;;2.70;1.00;;;19.50;44.30;;;;;;5051398;28;20032;-66
2022/09/02 03:58:06;;;;;;;3.83;0.95;;;19.50;44.30;;;;;;5072359;28;20025;-66
2022/09/02 04:00:33;;;;;;;2.70;1.00;;;19.50;44.30;;;;;;5051806;28;20020;-66
2022/09/02 04:03:02;;;;;;;2.25;0.88;;;19.50;44.30;;;;;;5056835;28;20025;-66
2022/09/02 04:05:30;;;;;;;1.70;0.90;;;19.50;44.40;;;;;;5058558;28;20636;-66
2022/09/02 04:07:58;;;;;;;2.28;1.00;;;19.40;44.50;;;;;;5089604;28;20028;-66
2022/09/02 04:10:24;;;;;;;3.30;1.10;;;19.40;44.50;;;;;;5089897;28;20085;-66
2022/09/02 04:12:51;;;;;;;5.72;1.15;;;19.40;44.50;;;;;;5073775;28;20333;-69
2022/09/02 04:15:18;;;;;;;3.88;1.33;;;19.40;44.60;;;;;;5073065;28;20044;-69
2022/09/02 04:17:45;;;;;;;3.03;1.02;;;19.40;44.60;;;;;;5073208;28;20024;-69
2022/09/02 04:20:13;;;;;;;2.47;0.93;;;19.40;44.70;;;;;;5069320;28;20054;-69
2022/09/02 04:22:39;;;;;;;3.75;1.15;;;19.40;44.70;;;;;;5071186;28;20020;-69
2022/09/02 04:25:06;;;;;;;1.92;0.93;;;19.40;44.70;;;;;;5072492;28;20024;-69
2022/09/02 04:27:34;;;;;;;1.42;0.82;;;19.40;44.80;;;;;;5073923;28;20073;-69
2022/09/02 04:29:59;;;;;;;3.95;1.15;;;19.40;44.90;;;;;;5056568;28;20034;-69
2022/09/02 04:32:26;;;;;;;3.92;1.10;;;19.40;44.80;;;;;;5074436;28;20024;-69
2022/09/02 04:34:52;;;;;;;3.38;1.08;;;19.40;44.90;;;;;;5073834;28;20026;-68
2022/09/02 04:37:18;;;;;;;3.95;1.23;;;19.40;44.90;;;;;;5090117;28;20487;-68
2022/09/02 04:39:44;;;;;;;3.10;1.00;;;19.30;44.90;;;;;;5063420;28;20035;-68
2022/09/02 04:42:11;;;;;;;2.83;1.10;;;19.30;44.90;;;;;;5076399;28;20020;-68
2022/09/02 04:44:37;;;;;;;3.47;1.13;;;19.30;44.90;;;;;;5066985;28;20025;-68
2022/09/02 04:47:03;;;;;;;2.40;0.95;;;19.30;44.90;;;;;;5042860;28;20027;-68
2022/09/02 04:49:31;;;;;;;4.10;1.00;;;19.30;45.00;;;;;;5068057;28;20024;-68
2022/09/02 04:51:59;;;;;;;2.78;1.00;;;19.30;45.00;;;;;;5065228;28;20046;-68
2022/09/02 04:54:26;;;;;;;3.53;1.13;;;19.20;45.60;;;;;;5053005;28;20032;-69
2022/09/02 04:56:54;;;;;;;2.70;1.20;;;19.20;45.00;;;;;;5068168;28;20728;-67
2022/09/02 04:59:21;;;;;;;2.63;0.95;;;19.20;45.00;;;;;;5055371;28;20032;-67
2022/09/02 05:02:00;;;;;;;3.67;1.17;;;19.20;45.10;;;;;;5056165;28;20556;-67
2022/09/02 05:04:29;;;;;;;2.22;0.93;;;19.20;45.10;;;;;;5071796;28;20059;-67
2022/09/02 05:06:57;;;;;;;2.85;1.15;;;19.20;45.20;;;;;;5079118;28;20019;-67
2022/09/02 05:09:23;;;;;;;2.03;0.80;;;19.20;45.20;;;;;;5065937;28;20024;-67
2022/09/02 05:12:03;;;;;;;4.13;1.17;;;19.20;45.30;;;;;;5071621;28;20042;-67
2022/09/02 05:14:32;;;;;;;3.05;1.23;;;19.20;45.30;;;;;;5076699;28;20565;-67
2022/09/02 05:17:02;;;;;;;3.22;1.00;;;19.20;45.30;;;;;;5072004;28;20059;-67
2022/09/02 05:19:28;;;;;;;2.88;1.10;;;19.20;45.40;;;;;;5093899;28;20053;-67
2022/09/02 05:21:56;;;;;;;3.35;1.30;;;19.20;45.50;;;;;;5091447;28;20036;-67
2022/09/02 05:24:30;;;;;;;2.30;1.17;;;19.20;45.50;;;;;;5071247;28;20074;-67
2022/09/02 05:26:59;;;;;;;4.57;1.15;;;19.20;45.60;;;;;;5054478;28;20405;-67
2022/09/02 05:29:25;;;;;;;3.70;1.30;;;19.10;45.60;;;;;;5075497;28;20045;-67
2022/09/02 05:31:52;;;;;;;2.97;1.05;;;19.20;45.70;;;;;;5072175;28;20109;-67
2022/09/02 05:34:21;;;;;;;5.03;1.20;;;19.20;45.70;;;;;;5075251;28;20440;-67
2022/09/02 05:36:47;;;;;;;2.15;1.00;;;19.20;45.80;;;;;;5070150;28;20058;-68
2022/09/02 05:39:13;;;;;;;1.52;0.93;;;19.10;45.70;;;;;;5074158;28;20051;-68
2022/09/02 05:41:39;;;;;;;2.38;0.90;;;19.20;45.70;;;;;;5072920;28;20024;-67
2022/09/02 05:44:06;;;;;;;2.17;0.95;;;19.10;45.80;;;;;;5073149;28;20062;-67
2022/09/02 05:46:34;;;;;;;4.68;1.45;;;19.20;45.90;;;;;;5073602;28;20059;-67
2022/09/02 05:49:11;;;;;;;5.63;1.25;;;19.20;46.00;;;;;;5071365;28;20024;-68
2022/09/02 05:51:59;;;;;;;3.25;1.00;;;19.20;45.90;;;;;;5085283;28;20032;-67
2022/09/02 05:54:39;;;;;;;1.58;1.00;;;19.20;46.00;;;;;;5068124;28;20028;-68
2022/09/02 05:57:13;;;;;;;3.15;0.90;;;19.30;46.00;;;;;;5067858;28;20028;-67
2022/09/02 05:59:45;;;;;;;3.17;1.35;;;19.30;46.10;;;;;;5088776;28;20204;-68
2022/09/02 06:02:16;;;;;;;4.10;1.30;;;19.40;46.10;;;;;;5057025;28;20028;-71
2022/09/02 06:04:48;;;;;;;3.60;1.15;;;19.40;46.10;;;;;;5073388;28;20110;-69
2022/09/02 06:07:16;;;;;;;3.00;1.20;;;19.50;46.10;;;;;;5070041;28;20016;-70
2022/09/02 06:09:44;;;;;;;2.80;1.10;;;19.60;45.90;;;;;;5071846;28;20082;-68
2022/09/02 06:12:13;;;;;;;2.30;1.00;;;19.60;45.90;;;;;;5064320;28;20081;-72
2022/09/02 06:14:40;;;;;;;2.55;1.17;;;19.70;45.90;;;;;;5071637;28;20048;-72
2022/09/02 06:17:06;;;;;;;2.08;0.98;;;19.90;45.80;;;;;;5072618;28;20139;-72
2022/09/02 06:19:39;;;;;;;2.83;1.23;;;19.90;45.70;;;;;;5071482;28;20016;-69
2022/09/02 06:22:06;;;;;;;3.90;1.10;;;19.90;45.50;;;;;;5071557;28;20024;-70
2022/09/02 06:24:34;;;;;;;3.55;1.17;;;20.00;45.60;;;;;;5067784;28;20016;-71
2022/09/02 06:27:06;;;;;;;;;;;20.00;45.80;;;;;;5070662;28;20027;-71
2022/09/02 06:29:32;;;;;;;4.55;1.38;;;19.90;45.70;;;;;;5069777;28;19919;-70
2022/09/02 06:31:58;;;;;;;2.50;1.20;;;19.80;45.80;;;;;;5069828;28;20024;-71
2022/09/02 06:34:26;;;;;;;3.53;1.30;;;20.10;45.70;;;;;;5054323;28;20487;-73
2022/09/02 06:36:52;;;;;;;4.05;1.67;;;20.40;45.30;;;;;;5070102;28;20472;-70
2022/09/02 06:39:20;;;;;;;3.00;1.10;;;20.50;45.10;;;;;;5070663;28;20077;-73
2022/09/02 06:41:48;;;;;;;2.40;1.20;;;20.80;44.70;;;;;;5068431;28;20032;-72
2022/09/02 06:44:17;;;;;;;5.88;1.30;;;21.00;44.30;;;;;;5069692;28;20039;-72
2022/09/02 06:46:47;;;;;;;7.72;1.60;;;21.10;44.20;;;;;;5069440;28;20531;-71
2022/09/02 06:49:15;;;;;;;4.25;1.35;;;20.90;44.90;;;;;;5055580;28;20020;-70
2022/09/02 06:51:46;;;;;;;2.40;1.00;;;20.80;44.50;;;;;;5067362;28;20368;-72
2022/09/02 06:54:15;;;;;;;4.22;1.30;;;20.80;45.30;;;;;;5071105;28;20051;-73
2022/09/02 06:56:43;;;;;;;4.80;1.23;;;20.70;44.80;;;;;;5069318;28;20016;-69
2022/09/02 06:59:10;;;;;;;5.05;1.50;;;20.60;45.00;;;;;;5070556;28;20525;-68
2022/09/02 07:01:46;;;;;;;3.65;1.23;;;20.50;45.20;;;;;;5066429;28;20038;-69
2022/09/02 07:07:04;;;;;;;5.72;1.40;;;20.50;45.40;;;;;;5070092;28;20059;-69
2022/09/02 07:09:32;;;;;;;;;;;20.40;45.40;;;;;;5086137;28;20047;-70
2022/09/02 07:12:05;;;;;;;4.35;1.20;;;20.40;45.40;;;;;;5070244;28;20213;-69
2022/09/02 07:14:38;;;;;;;5.10;1.17;;;20.50;45.40;;;;;;5062926;28;20036;-73
2022/09/02 07:17:04;;;;;;;3.78;1.15;;;20.50;45.30;;;;;;5089017;28;20765;-69
2022/09/02 07:19:31;;;;;;;3.60;1.13;;;20.60;45.40;;;;;;5067074;28;20031;-69
2022/09/02 07:21:57;;;;;;;4.25;1.45;;;20.70;45.40;;;;;;5082120;28;20314;-69
2022/09/02 07:24:23;;;;;;;6.20;1.50;;;20.70;45.40;;;;;;5067413;28;20027;-67
2022/09/02 07:26:50;;;;;;;3.72;1.30;;;20.80;45.30;;;;;;5054542;28;20032;-68
2022/09/02 07:29:18;;;;;;;5.60;1.30;;;20.90;45.10;;;;;;5077586;28;20440;-68
2022/09/02 07:31:47;;;;;;;4.45;1.35;;;21.10;44.90;;;;;;5061154;28;20035;-68
2022/09/02 07:34:16;;;;;;;6.50;1.63;;;21.20;44.70;;;;;;5077948;28;20030;-68
2022/09/02 07:36:47;;;;;;;2.53;1.13;;;21.30;44.50;;;;;;5076356;28;20424;-68
2022/09/02 07:39:15;;;;;;;4.60;1.60;;;21.60;44.30;;;;;;5068019;28;20016;-68
2022/09/02 07:41:42;;;;;;;4.13;1.42;;;22.00;44.00;;;;;;5077587;28;20368;-68
2022/09/02 07:44:09;;;;;;;4.05;1.40;;;22.30;43.40;;;;;;5077694;28;20073;-68
2022/09/02 07:46:36;;;;;;;3.50;1.70;;;22.70;43.00;;;;;;5078084;28;20028;-67
2022/09/02 07:49:06;;;;;;;5.25;1.33;;;22.90;42.60;;;;;;5060124;28;20062;-67
2022/09/02 07:51:35;;;;;;;5.82;1.60;;;23.10;42.50;;;;;;5077797;28;20108;-67
2022/09/02 07:54:04;;;;;;;4.50;1.35;;;23.40;42.10;;;;;;5057291;28;20024;-67
2022/09/02 07:56:30;;;;;;;6.13;1.65;;;23.50;41.70;;;;;;5070360;28;20035;-67
2022/09/02 07:58:56;;;;;;;4.22;1.60;;;23.40;41.70;;;;;;5077334;28;20024;-67
2022/09/02 08:01:21;;;;;;;5.00;1.55;;;23.40;41.70;;;;;;5076963;28;20024;-67
2022/09/02 08:03:48;;;;;;;3.53;1.50;;;23.50;41.70;;;;;;5077127;28;20024;-67
2022/09/02 08:06:14;;;;;;;3.50;1.33;;;23.70;42.10;;;;;;5042031;28;20427;-66
2022/09/02 08:08:41;;;;;;;2.38;1.10;;;23.90;41.10;;;;;;5076563;28;20031;-67
2022/09/02 08:11:07;;;;;;;2.63;1.20;;;24.20;40.90;;;;;;5094711;28;20035;-67
2022/09/02 08:13:33;;;;;;;4.10;1.33;;;24.30;40.70;;;;;;5094401;28;20469;-67
2022/09/02 08:15:59;;;;;;;4.40;1.42;;;24.50;40.50;;;;;;5076905;28;20089;-67
2022/09/02 08:18:25;;;;;;;4.00;1.50;;;24.60;40.20;;;;;;5094880;28;20059;-66
2022/09/02 08:20:51;;;;;;;3.55;1.60;;;24.70;40.10;;;;;;5075877;28;20420;-67
2022/09/02 08:23:16;;;;;;;4.00;1.33;;;24.90;39.80;;;;;;5076723;28;20181;-67
2022/09/02 08:25:42;;;;;;;3.45;1.25;;;25.10;39.50;;;;;;5077136;28;20035;-67
2022/09/02 08:28:08;;;;;;;4.38;1.40;;;25.20;39.40;;;;;;5094972;28;20028;-68
2022/09/02 08:30:34;;;;;;;5.43;1.40;;;25.40;39.30;;;;;;5094439;28;20031;-68
2022/09/02 08:33:00;;;;;;;3.30;1.42;;;25.50;39.10;;;;;;5094466;28;20028;-68
2022/09/02 08:35:26;;;;;;;4.22;1.30;;;25.70;38.90;;;;;;5091388;28;20100;-68
2022/09/02 08:37:51;;;;;;;7.85;1.50;;;25.60;38.70;;;;;;5075673;28;20036;-68
2022/09/02 08:40:20;;;;;;;4.70;1.63;;;25.60;38.80;;;;;;5094170;28;20028;-68
2022/09/02 08:42:49;;;;;;;4.95;1.50;;;25.50;38.70;;;;;;5094990;28;20457;-68
2022/09/02 08:45:36;;;;;;;4.78;1.58;;;25.60;38.70;;;;;;5094290;28;20365;-68
2022/09/02 08:48:20;;;;;;;5.35;1.48;;;25.70;38.70;;;;;;5094722;28;20020;-68
2022/09/02 08:50:49;;;;;;;4.70;1.45;;;25.70;38.60;;;;;;5092414;28;20401;-67
2022/09/02 08:53:30;;;;;;;4.25;1.33;;;25.80;38.60;;;;;;5092225;28;20036;-68
2022/09/02 08:55:58;;;;;;;3.53;1.30;;;25.90;38.40;;;;;;5076493;28;20024;-68
2022/09/02 08:58:28;;;;;;;3.75;1.45;;;26.00;38.30;;;;;;5076602;28;20043;-68
2022/09/02 09:01:17;;;;;;;4.30;1.30;;;26.10;38.30;;;;;;5059286;28;20028;-68
2022/09/02 09:04:13;;;;;;;6.35;1.58;;;26.10;38.40;;;;;;5076533;28;20437;-68
2022/09/02 09:06:48;;;;;;;6.30;1.50;;;26.10;38.40;;;;;;5092739;28;20032;-68
2022/09/02 09:09:33;;;;;;;4.25;1.08;;;26.20;38.60;;;;;;5076545;28;20444;-68
2022/09/02 09:12:27;;;;;;;3.20;1.30;;;26.20;38.60;;;;;;5091592;28;20028;-68
2022/09/02 09:15:05;;;;;;;4.63;1.60;;;26.30;38.60;;;;;;5092477;28;20048;-68
2022/09/02 09:17:40;;;;;;;4.40;1.55;;;26.40;38.60;;;;;;5094521;28;20028;-68
2022/09/02 09:20:12;;;;;;;5.53;1.67;;;26.50;38.50;;;;;;5076236;28;20187;-68
2022/09/02 09:22:40;;;;;;;5.72;1.80;;;26.60;38.30;;;;;;5094477;28;20021;-68
2022/09/02 09:25:12;;;;;;;5.32;1.70;;;26.60;38.20;;;;;;5076524;28;20028;-68
2022/09/02 09:27:38;;;;;;;4.90;1.67;;;26.60;38.00;;;;;;5093138;28;20036;-68
2022/09/02 09:30:08;;;;;;;3.88;1.55;;;26.60;38.00;;;;;;5059551;28;20430;-68
2022/09/02 09:32:41;;;;;;;4.30;1.83;;;26.60;38.10;;;;;;5076075;28;20081;-68
2022/09/02 09:35:17;;;;;;;8.73;2.10;;;26.60;38.10;;;;;;5094205;28;20027;-68
2022/09/02 09:37:51;;;;;;;4.97;1.50;;;26.60;38.10;;;;;;5080597;28;20081;-68
2022/09/02 09:40:16;;;;;;;5.20;1.70;;;26.60;38.20;;;;;;5067135;28;20506;-68
2022/09/02 09:42:43;;;;;;;3.08;1.50;;;26.70;38.20;;;;;;5093345;28;20024;-68
2022/09/02 09:45:24;;;;;;;4.28;1.50;;;26.70;38.10;;;;;;5075904;28;20032;-68
2022/09/02 09:48:07;;;;;;;4.13;1.70;;;26.70;38.00;;;;;;5075187;28;20023;-68
2022/09/02 09:50:33;;;;;;;4.18;1.52;;;26.80;38.00;;;;;;5079293;28;20123;-68
2022/09/02 09:53:19;;;;;;;10.73;1.98;;;26.90;37.90;;;;;;5079422;28;20078;-68
2022/09/02 09:56:07;;;;;;;4.30;1.67;;;27.00;37.80;;;;;;5096951;28;20110;-68
2022/09/02 09:58:45;;;;;;;6.80;1.95;;;27.10;37.80;;;;;;5097053;28;20032;-68
2022/09/02 10:01:19;;;;;;;5.05;1.90;;;27.20;37.80;;;;;;5097108;28;20028;-68
2022/09/02 10:04:09;;;;;;;5.15;1.45;;;27.30;37.70;;;;;;5079435;28;20024;-69
2022/09/02 10:06:35;;;;;;;7.78;1.67;;;27.40;37.70;;;;;;5078734;28;20051;-68
2022/09/02 10:09:26;;;;;;;3.72;1.52;;;27.50;37.60;;;;;;5096995;28;20024;-68
2022/09/02 10:12:04;;;;;;;5.53;1.80;;;27.50;37.50;;;;;;5066827;28;20029;-68
2022/09/02 10:14:35;;;;;;;3.53;1.20;;;27.60;37.70;;;;;;5088119;28;20071;-68
2022/09/02 10:17:15;;;;;;;;;;;27.60;37.70;;;;;;5097335;28;20028;-68
2022/09/02 10:19:58;;;;;;;3.30;1.53;;;27.70;37.70;;;;;;5096905;28;19962;-68
2022/09/02 10:22:44;;;;;;;4.22;1.60;;;27.70;37.60;;;;;;5082795;28;20036;-68
2022/09/02 10:25:28;;;;;;;6.97;1.65;;;27.70;37.40;;;;;;5093747;28;20070;-68
2022/09/02 10:28:02;;;;;;;4.18;1.58;;;27.70;37.50;;;;;;5078819;28;20020;-68
2022/09/02 10:30:31;;;;;;;3.28;1.48;;;27.70;37.50;;;;;;5096758;28;20425;-68
2022/09/02 10:33:11;;;;;;;4.68;1.63;;;27.70;37.60;;;;;;5078916;28;20097;-68
2022/09/02 10:35:51;;;;;;;3.90;1.65;;;27.80;37.50;;;;;;5079397;28;20035;-69
2022/09/02 10:38:22;;;;;;;5.53;1.95;;;27.80;37.50;;;;;;5079431;28;20028;-68
2022/09/02 10:41:13;;;;;;;3.40;1.45;;;27.80;37.40;;;;;;5070509;28;20032;-68
2022/09/02 10:43:53;;;;;;;3.92;1.70;;;27.90;37.40;;;;;;5079029;28;20056;-68
2022/09/02 10:46:23;;;;;;;5.90;1.73;;;27.90;37.40;;;;;;5066126;28;20103;-68
2022/09/02 10:48:54;;;;;;;5.65;2.10;;;28.00;37.40;;;;;;5096418;28;20052;-68
2022/09/02 10:51:45;;;;;;;3.58;1.73;;;28.00;37.50;;;;;;5096816;28;20032;-68
2022/09/02 10:54:20;;;;;;;4.72;1.88;;;28.10;37.50;;;;;;5096373;28;20032;-68
2022/09/02 10:56:58;;;;;;;3.83;1.60;;;28.20;37.30;;;;;;5095806;28;20120;-68
2022/09/02 10:59:41;;;;;;;9.35;2.00;;;28.20;37.30;;;;;;5077343;28;20119;-68
2022/09/02 11:02:23;;;;;;;5.82;2.15;;;28.30;37.40;;;;;;5077489;28;20365;-69
2022/09/02 11:04:58;;;;;;;5.30;2.00;;;28.40;37.30;;;;;;5094215;28;20035;-69
2022/09/02 11:07:35;;;;;;;4.40;1.80;;;28.50;37.40;;;;;;5061877;28;20024;-69
2022/09/02 11:10:33;;;;;;;3.92;1.73;;;28.50;37.10;;;;;;5078477;28;20085;-68
2022/09/02 11:13:13;;;;;;;3.60;1.85;;;28.70;37.30;;;;;;5096397;28;20059;-68
2022/09/02 11:15:52;;;;;;;3.50;1.60;;;28.70;37.10;;;;;;5096162;28;20039;-68
2022/09/02 11:18:24;;;;;;;3.35;1.52;;;28.70;37.00;;;;;;5067386;28;20138;-68
2022/09/02 11:20:58;;;;;;;5.00;1.73;;;28.70;36.80;;;;;;5077072;28;20123;-68
2022/09/02 11:23:51;;;;;;;4.97;1.77;;;28.80;37.10;;;;;;5077575;28;20563;-68
2022/09/02 11:26:37;;;;;;;3.67;1.80;;;28.90;36.80;;;;;;5091882;28;20119;-68
2022/09/02 11:29:35;;;;;;;8.45;2.05;;;28.80;36.70;;;;;;5086734;28;20032;-68
2022/09/02 11:32:22;;;;;;;4.95;1.70;;;28.80;36.50;;;;;;5085719;28;20027;-69
2022/09/02 11:34:51;;;;;;;3.38;1.52;;;28.80;36.30;;;;;;5064858;28;20035;-68
2022/09/02 11:37:42;;;;;;;3.65;1.60;;;28.70;36.00;;;;;;5077094;28;20024;-68
2022/09/02 11:40:24;;;;;;;4.55;1.63;;;28.80;35.90;;;;;;5093295;28;20027;-67
2022/09/02 11:43:20;;;;;;;4.75;1.70;;;28.80;35.50;;;;;;5095584;28;20093;-68
2022/09/02 11:45:55;;;;;;;3.58;1.60;;;28.70;35.10;;;;;;5084622;28;20031;-68
2022/09/02 11:48:33;;;;;;;3.28;1.60;;;28.60;34.70;;;;;;5071103;28;20031;-68
2022/09/02 11:51:05;;;;;;;2.50;1.50;;;28.50;34.50;;;;;;5066459;28;20020;-69
2022/09/02 11:53:42;;;;;;;4.18;1.80;;;28.40;34.70;;;;;;5067297;28;20310;-68
2022/09/02 11:56:16;;;;;;;4.95;1.60;;;28.20;34.90;;;;;;5061032;28;20053;-69
2022/09/02 11:58:46;;;;;;;4.53;2.08;;;28.10;35.20;;;;;;5071662;28;20028;-68
2022/09/02 12:01:20;;;;;;;3.35;1.63;;;27.90;35.40;;;;;;5084978;28;20070;-69
2022/09/02 12:03:52;;;;;;;3.95;1.73;;;27.70;35.40;;;;;;5087314;28;20043;-69
2022/09/02 12:06:20;;;;;;;3.95;1.67;;;27.60;35.50;;;;;;5089531;28;20028;-68
2022/09/02 12:08:45;;;;;;;5.38;1.77;;;27.60;35.50;;;;;;5086775;28;20020;-68
2022/09/02 12:11:40;;;;;;;3.95;1.80;;;27.70;35.50;;;;;;5085975;28;20038;-69
2022/09/02 12:14:26;;;;;;;3.58;1.60;;;27.70;35.50;;;;;;5072024;28;20044;-68
2022/09/02 12:17:04;;;;;;;4.18;1.92;;;27.70;35.50;;;;;;5086537;28;20047;-69
2022/09/02 12:19:42;;;;;;;4.50;1.90;;;27.80;35.40;;;;;;5072642;28;20513;-69
2022/09/02 12:22:14;;;;;;;3.33;1.70;;;27.80;35.50;;;;;;5068260;28;20030;-69
2022/09/02 12:24:56;;;;;;;3.05;1.67;;;27.90;35.20;;;;;;5051990;28;20058;-68
2022/09/02 12:27:28;;;;;;;5.00;1.98;;;27.80;35.10;;;;;;5069644;28;20027;-69
2022/09/02 12:29:55;;;;;;;3.88;1.80;;;27.90;35.20;;;;;;5071931;28;20376;-69
2022/09/02 12:32:49;;;;;;;4.30;1.90;;;27.90;35.30;;;;;;5088355;28;20036;-69
2022/09/02 12:35:33;;;;;;;4.15;1.80;;;27.90;35.30;;;;;;5089551;28;20042;-69
2022/09/02 12:38:11;;;;;;;4.40;1.90;;;27.90;35.10;;;;;;5050637;28;20032;-69
2022/09/02 12:40:40;;;;;;;3.42;1.70;;;27.90;35.00;;;;;;5091202;28;20127;-69
2022/09/02 12:43:31;;;;;;;4.75;2.00;;;27.90;35.00;;;;;;5071094;28;20032;-69
2022/09/02 12:46:11;;;;;;;5.25;1.98;;;27.80;35.00;;;;;;5061774;28;20028;-69
2022/09/02 12:48:47;;;;;;;3.55;1.80;;;27.60;34.90;;;;;;5088093;28;20459;-69
2022/09/02 12:51:56;;;;;;;4.45;1.80;;;27.40;35.70;;;;;;5089242;28;20032;-69
2022/09/02 12:54:42;;;;;;;4.55;2.03;;;27.30;35.10;;;;;;5070179;28;20097;-69
2022/09/02 12:57:10;;;;;;;4.32;1.73;;;27.30;35.00;;;;;;5087391;28;20031;-69
2022/09/02 12:59:40;;;;;;;3.92;1.75;;;27.20;35.20;;;;;;5069016;28;20025;-68
2022/09/02 13:02:44;;;;;;;4.35;1.85;;;27.20;35.00;;;;;;5088842;28;20035;-69
2022/09/02 13:05:21;;;;;;;6.68;1.98;;;27.20;35.00;;;;;;5006781;28;20026;-68
2022/09/02 13:08:20;;;;;;;4.95;1.90;;;27.20;35.10;;;;;;4997215;28;20125;-69
2022/09/02 13:11:06;;;;;;;4.38;1.80;;;27.20;35.20;;;;;;5002140;28;20038;-68
2022/09/02 13:13:37;;;;;;;3.97;1.80;;;27.30;35.00;;;;;;4996099;28;20149;-69